sensor_id;sensor_type;location;lat;lon;timestamp;P1;durP1;ratioP1;P2;durP2;ratioP2
73693;SDS011;61997;53.974;11.670;2024-01-10T00:01:06;16.02;;;7.93;;
73693;SDS011;61997;53.974;11.670;2024-01-10T00:03:32;17.77;;;8.43;;
73693;SDS011;61997;53.974;11.670;2024-01-10T00:05:57;15.13;;;7.63;;
73693;SDS011;61997;53.974;11.670;2024-01-10T00:08:22;16.42;;;7.22;;
73693;SDS011;61997;53.974;11.670;2024-01-10T00:10:48;14.85;;;7.15;;
73693;SDS011;61997;53.974;11.670;2024-01-10T00:13:13;13.32;;;6.65;;
73693;SDS011;61997;53.974;11.670;2024-01-10T00:15:38;15.48;;;8.07;;
73693;SDS011;61997;53.974;11.670;2024-01-10T00:18:04;13.43;;;7.30;;
73693;SDS011;61997;53.974;11.670;2024-01-10T00:20:29;14.90;;;7.82;;
73693;SDS011;61997;53.974;11.670;2024-01-10T00:22:55;12.50;;;7.00;;
73693;SDS011;61997;53.974;11.670;2024-01-10T00:25:20;11.98;;;6.80;;
73693;SDS011;61997;53.974;11.670;2024-01-10T00:27:45;13.45;;;7.45;;
73693;SDS011;61997;53.974;11.670;2024-01-10T00:30:11;13.13;;;6.93;;
73693;SDS011;61997;53.974;11.670;2024-01-10T00:32:36;18.00;;;7.28;;
73693;SDS011;61997;53.974;11.670;2024-01-10T00:35:01;10.52;;;5.65;;
73693;SDS011;61997;53.974;11.670;2024-01-10T00:37:27;13.32;;;6.32;;
73693;SDS011;61997;53.974;11.670;2024-01-10T00:39:53;12.68;;;7.05;;
73693;SDS011;61997;53.974;11.670;2024-01-10T00:42:18;15.18;;;7.30;;
73693;SDS011;61997;53.974;11.670;2024-01-10T00:44:43;18.38;;;8.68;;
73693;SDS011;61997;53.974;11.670;2024-01-10T00:47:10;11.95;;;6.75;;
73693;SDS011;61997;53.974;11.670;2024-01-10T00:49:36;14.35;;;7.68;;
73693;SDS011;61997;53.974;11.670;2024-01-10T00:52:01;15.68;;;6.70;;
73693;SDS011;61997;53.974;11.670;2024-01-10T00:54:27;14.73;;;7.10;;
73693;SDS011;61997;53.974;11.670;2024-01-10T00:56:52;15.52;;;7.50;;
73693;SDS011;61997;53.974;11.670;2024-01-10T00:59:17;13.00;;;7.15;;
73693;SDS011;61997;53.974;11.670;2024-01-10T01:01:43;12.73;;;6.43;;
73693;SDS011;61997;53.974;11.670;2024-01-10T01:04:08;14.50;;;7.18;;
73693;SDS011;61997;53.974;11.670;2024-01-10T01:06:33;16.40;;;7.28;;
73693;SDS011;61997;53.974;11.670;2024-01-10T01:08:59;13.10;;;7.72;;
73693;SDS011;61997;53.974;11.670;2024-01-10T01:11:24;14.85;;;7.80;;
73693;SDS011;61997;53.974;11.670;2024-01-10T01:13:50;13.45;;;6.97;;
73693;SDS011;61997;53.974;11.670;2024-01-10T01:16:15;11.45;;;6.45;;
73693;SDS011;61997;53.974;11.670;2024-01-10T01:18:41;16.02;;;7.72;;
73693;SDS011;61997;53.974;11.670;2024-01-10T01:21:10;14.55;;;6.68;;
73693;SDS011;61997;53.974;11.670;2024-01-10T01:23:36;11.95;;;6.25;;
73693;SDS011;61997;53.974;11.670;2024-01-10T01:26:01;14.73;;;6.05;;
73693;SDS011;61997;53.974;11.670;2024-01-10T01:28:26;13.30;;;6.90;;
73693;SDS011;61997;53.974;11.670;2024-01-10T01:30:52;13.18;;;7.60;;
73693;SDS011;61997;53.974;11.670;2024-01-10T01:33:17;13.55;;;6.72;;
73693;SDS011;61997;53.974;11.670;2024-01-10T01:35:43;12.07;;;7.15;;
73693;SDS011;61997;53.974;11.670;2024-01-10T01:38:08;12.35;;;6.05;;
73693;SDS011;61997;53.974;11.670;2024-01-10T01:40:33;10.52;;;5.93;;
73693;SDS011;61997;53.974;11.670;2024-01-10T01:42:59;15.35;;;6.78;;
73693;SDS011;61997;53.974;11.670;2024-01-10T01:45:24;13.45;;;6.32;;
73693;SDS011;61997;53.974;11.670;2024-01-10T01:47:49;13.50;;;6.45;;
73693;SDS011;61997;53.974;11.670;2024-01-10T01:50:15;12.57;;;6.18;;
73693;SDS011;61997;53.974;11.670;2024-01-10T01:52:41;15.27;;;7.80;;
73693;SDS011;61997;53.974;11.670;2024-01-10T01:55:08;18.80;;;6.97;;
73693;SDS011;61997;53.974;11.670;2024-01-10T01:57:34;9.95;;;6.38;;
73693;SDS011;61997;53.974;11.670;2024-01-10T02:00:01;10.93;;;5.82;;
73693;SDS011;61997;53.974;11.670;2024-01-10T02:02:27;11.23;;;5.95;;
73693;SDS011;61997;53.974;11.670;2024-01-10T02:04:54;11.57;;;6.32;;
73693;SDS011;61997;53.974;11.670;2024-01-10T02:07:19;12.30;;;6.70;;
73693;SDS011;61997;53.974;11.670;2024-01-10T02:09:45;9.00;;;6.10;;
73693;SDS011;61997;53.974;11.670;2024-01-10T02:12:10;12.40;;;5.70;;
73693;SDS011;61997;53.974;11.670;2024-01-10T02:14:36;12.65;;;6.30;;
73693;SDS011;61997;53.974;11.670;2024-01-10T02:17:01;11.23;;;5.90;;
73693;SDS011;61997;53.974;11.670;2024-01-10T02:19:26;11.10;;;5.45;;
73693;SDS011;61997;53.974;11.670;2024-01-10T02:21:54;14.57;;;7.75;;
73693;SDS011;61997;53.974;11.670;2024-01-10T02:24:21;12.23;;;5.53;;
73693;SDS011;61997;53.974;11.670;2024-01-10T02:26:46;16.13;;;6.90;;
73693;SDS011;61997;53.974;11.670;2024-01-10T02:29:12;12.45;;;6.95;;
73693;SDS011;61997;53.974;11.670;2024-01-10T02:31:38;11.23;;;6.45;;
73693;SDS011;61997;53.974;11.670;2024-01-10T02:34:03;14.38;;;6.55;;
73693;SDS011;61997;53.974;11.670;2024-01-10T02:36:28;11.57;;;6.22;;
73693;SDS011;61997;53.974;11.670;2024-01-10T02:38:54;13.35;;;6.05;;
73693;SDS011;61997;53.974;11.670;2024-01-10T02:41:19;10.50;;;6.00;;
73693;SDS011;61997;53.974;11.670;2024-01-10T02:43:45;12.15;;;6.07;;
73693;SDS011;61997;53.974;11.670;2024-01-10T02:46:11;11.73;;;6.50;;
73693;SDS011;61997;53.974;11.670;2024-01-10T02:48:36;11.35;;;6.03;;
73693;SDS011;61997;53.974;11.670;2024-01-10T02:51:01;11.55;;;5.97;;
73693;SDS011;61997;53.974;11.670;2024-01-10T02:53:27;10.48;;;6.05;;
73693;SDS011;61997;53.974;11.670;2024-01-10T02:55:52;11.32;;;5.82;;
73693;SDS011;61997;53.974;11.670;2024-01-10T02:58:17;10.85;;;5.18;;
73693;SDS011;61997;53.974;11.670;2024-01-10T03:00:43;11.95;;;4.75;;
73693;SDS011;61997;53.974;11.670;2024-01-10T03:03:09;12.52;;;6.15;;
73693;SDS011;61997;53.974;11.670;2024-01-10T03:05:34;9.60;;;4.75;;
73693;SDS011;61997;53.974;11.670;2024-01-10T03:07:59;10.75;;;5.25;;
73693;SDS011;61997;53.974;11.670;2024-01-10T03:10:27;9.10;;;5.00;;
73693;SDS011;61997;53.974;11.670;2024-01-10T03:12:52;9.82;;;5.15;;
73693;SDS011;61997;53.974;11.670;2024-01-10T03:15:18;7.85;;;5.00;;
73693;SDS011;61997;53.974;11.670;2024-01-10T03:17:43;13.48;;;5.35;;
73693;SDS011;61997;53.974;11.670;2024-01-10T03:20:08;9.32;;;4.82;;
73693;SDS011;61997;53.974;11.670;2024-01-10T03:22:34;11.00;;;4.45;;
73693;SDS011;61997;53.974;11.670;2024-01-10T03:25:00;7.18;;;4.80;;
73693;SDS011;61997;53.974;11.670;2024-01-10T03:27:25;9.95;;;5.15;;
73693;SDS011;61997;53.974;11.670;2024-01-10T03:29:51;8.93;;;5.40;;
73693;SDS011;61997;53.974;11.670;2024-01-10T03:32:16;11.32;;;5.45;;
73693;SDS011;61997;53.974;11.670;2024-01-10T03:34:41;10.25;;;4.93;;
73693;SDS011;61997;53.974;11.670;2024-01-10T03:37:07;9.13;;;4.53;;
73693;SDS011;61997;53.974;11.670;2024-01-10T03:39:33;8.77;;;5.10;;
73693;SDS011;61997;53.974;11.670;2024-01-10T03:41:58;9.45;;;4.80;;
73693;SDS011;61997;53.974;11.670;2024-01-10T03:44:24;9.82;;;5.05;;
73693;SDS011;61997;53.974;11.670;2024-01-10T03:46:51;8.65;;;5.15;;
73693;SDS011;61997;53.974;11.670;2024-01-10T03:49:16;8.25;;;4.55;;
73693;SDS011;61997;53.974;11.670;2024-01-10T03:51:42;9.93;;;5.28;;
73693;SDS011;61997;53.974;11.670;2024-01-10T03:54:08;10.60;;;5.15;;
73693;SDS011;61997;53.974;11.670;2024-01-10T03:56:33;8.55;;;4.25;;
73693;SDS011;61997;53.974;11.670;2024-01-10T03:58:59;10.07;;;5.13;;
73693;SDS011;61997;53.974;11.670;2024-01-10T04:01:26;10.50;;;5.13;;
73693;SDS011;61997;53.974;11.670;2024-01-10T04:03:51;7.57;;;4.32;;
73693;SDS011;61997;53.974;11.670;2024-01-10T04:06:17;11.18;;;4.60;;
73693;SDS011;61997;53.974;11.670;2024-01-10T04:08:42;8.55;;;4.30;;
73693;SDS011;61997;53.974;11.670;2024-01-10T04:11:07;11.63;;;5.00;;
73693;SDS011;61997;53.974;11.670;2024-01-10T04:13:34;8.85;;;4.30;;
73693;SDS011;61997;53.974;11.670;2024-01-10T04:15:59;9.80;;;4.38;;
73693;SDS011;61997;53.974;11.670;2024-01-10T04:18:24;8.00;;;4.68;;
73693;SDS011;61997;53.974;11.670;2024-01-10T04:20:51;8.13;;;4.30;;
73693;SDS011;61997;53.974;11.670;2024-01-10T04:23:16;11.95;;;5.53;;
73693;SDS011;61997;53.974;11.670;2024-01-10T04:25:42;8.48;;;3.92;;
73693;SDS011;61997;53.974;11.670;2024-01-10T04:28:07;7.18;;;3.75;;
73693;SDS011;61997;53.974;11.670;2024-01-10T04:30:33;11.73;;;5.45;;
73693;SDS011;61997;53.974;11.670;2024-01-10T04:32:58;8.40;;;4.28;;
73693;SDS011;61997;53.974;11.670;2024-01-10T04:35:23;7.20;;;3.70;;
73693;SDS011;61997;53.974;11.670;2024-01-10T04:37:49;9.13;;;4.22;;
73693;SDS011;61997;53.974;11.670;2024-01-10T04:40:14;7.25;;;3.83;;
73693;SDS011;61997;53.974;11.670;2024-01-10T04:42:39;6.80;;;3.67;;
73693;SDS011;61997;53.974;11.670;2024-01-10T04:45:06;9.55;;;4.40;;
73693;SDS011;61997;53.974;11.670;2024-01-10T04:47:32;8.57;;;4.63;;
73693;SDS011;61997;53.974;11.670;2024-01-10T04:49:59;8.05;;;3.78;;
73693;SDS011;61997;53.974;11.670;2024-01-10T04:52:24;6.05;;;3.45;;
73693;SDS011;61997;53.974;11.670;2024-01-10T04:54:49;7.57;;;3.97;;
73693;SDS011;61997;53.974;11.670;2024-01-10T04:57:15;8.20;;;4.32;;
73693;SDS011;61997;53.974;11.670;2024-01-10T04:59:41;7.88;;;4.05;;
73693;SDS011;61997;53.974;11.670;2024-01-10T05:02:06;7.53;;;3.67;;
73693;SDS011;61997;53.974;11.670;2024-01-10T05:04:32;7.18;;;3.92;;
73693;SDS011;61997;53.974;11.670;2024-01-10T05:06:57;5.47;;;3.72;;
73693;SDS011;61997;53.974;11.670;2024-01-10T05:09:23;7.03;;;4.25;;
73693;SDS011;61997;53.974;11.670;2024-01-10T05:11:48;6.63;;;4.25;;
73693;SDS011;61997;53.974;11.670;2024-01-10T05:14:16;8.02;;;4.15;;
73693;SDS011;61997;53.974;11.670;2024-01-10T05:16:41;7.78;;;4.25;;
73693;SDS011;61997;53.974;11.670;2024-01-10T05:19:07;9.23;;;4.25;;
73693;SDS011;61997;53.974;11.670;2024-01-10T05:21:32;8.07;;;3.63;;
73693;SDS011;61997;53.974;11.670;2024-01-10T05:23:58;8.50;;;4.10;;
73693;SDS011;61997;53.974;11.670;2024-01-10T05:26:23;7.43;;;4.55;;
73693;SDS011;61997;53.974;11.670;2024-01-10T05:28:48;6.40;;;3.20;;
73693;SDS011;61997;53.974;11.670;2024-01-10T05:31:14;7.75;;;3.92;;
73693;SDS011;61997;53.974;11.670;2024-01-10T05:33:39;5.38;;;3.55;;
73693;SDS011;61997;53.974;11.670;2024-01-10T05:36:05;5.38;;;3.60;;
73693;SDS011;61997;53.974;11.670;2024-01-10T05:38:30;7.97;;;3.88;;
73693;SDS011;61997;53.974;11.670;2024-01-10T05:40:55;6.18;;;3.63;;
73693;SDS011;61997;53.974;11.670;2024-01-10T05:43:21;7.10;;;3.67;;
73693;SDS011;61997;53.974;11.670;2024-01-10T05:45:46;7.57;;;3.70;;
73693;SDS011;61997;53.974;11.670;2024-01-10T05:48:12;9.05;;;4.15;;
73693;SDS011;61997;53.974;11.670;2024-01-10T05:50:37;10.10;;;4.10;;
73693;SDS011;61997;53.974;11.670;2024-01-10T05:53:04;6.47;;;4.13;;
73693;SDS011;61997;53.974;11.670;2024-01-10T05:55:29;5.13;;;3.35;;
73693;SDS011;61997;53.974;11.670;2024-01-10T05:57:54;5.72;;;3.25;;
73693;SDS011;61997;53.974;11.670;2024-01-10T06:00:20;6.53;;;3.22;;
73693;SDS011;61997;53.974;11.670;2024-01-10T06:02:46;9.30;;;3.75;;
73693;SDS011;61997;53.974;11.670;2024-01-10T06:05:11;7.55;;;3.97;;
73693;SDS011;61997;53.974;11.670;2024-01-10T06:07:37;7.72;;;3.88;;
73693;SDS011;61997;53.974;11.670;2024-01-10T06:10:04;6.95;;;4.18;;
73693;SDS011;61997;53.974;11.670;2024-01-10T06:12:30;5.70;;;3.33;;
73693;SDS011;61997;53.974;11.670;2024-01-10T06:14:56;7.72;;;3.88;;
73693;SDS011;61997;53.974;11.670;2024-01-10T06:17:22;7.82;;;3.90;;
73693;SDS011;61997;53.974;11.670;2024-01-10T06:19:47;5.72;;;3.47;;
73693;SDS011;61997;53.974;11.670;2024-01-10T06:22:14;5.55;;;3.67;;
73693;SDS011;61997;53.974;11.670;2024-01-10T06:24:39;6.10;;;3.03;;
73693;SDS011;61997;53.974;11.670;2024-01-10T06:27:06;7.00;;;3.70;;
73693;SDS011;61997;53.974;11.670;2024-01-10T06:29:31;6.22;;;3.00;;
73693;SDS011;61997;53.974;11.670;2024-01-10T06:31:57;7.63;;;3.47;;
73693;SDS011;61997;53.974;11.670;2024-01-10T06:34:23;6.97;;;3.70;;
73693;SDS011;61997;53.974;11.670;2024-01-10T06:36:49;6.38;;;3.58;;
73693;SDS011;61997;53.974;11.670;2024-01-10T06:39:14;6.20;;;3.60;;
73693;SDS011;61997;53.974;11.670;2024-01-10T06:41:40;7.40;;;3.67;;
73693;SDS011;61997;53.974;11.670;2024-01-10T06:44:07;8.50;;;3.55;;
73693;SDS011;61997;53.974;11.670;2024-01-10T06:46:32;7.53;;;4.32;;
73693;SDS011;61997;53.974;11.670;2024-01-10T06:48:58;7.75;;;4.53;;
73693;SDS011;61997;53.974;11.670;2024-01-10T06:51:24;7.38;;;3.58;;
73693;SDS011;61997;53.974;11.670;2024-01-10T06:53:49;7.53;;;3.72;;
73693;SDS011;61997;53.974;11.670;2024-01-10T06:56:14;5.53;;;3.42;;
73693;SDS011;61997;53.974;11.670;2024-01-10T06:58:40;7.13;;;3.95;;
73693;SDS011;61997;53.974;11.670;2024-01-10T07:01:10;9.20;;;4.35;;
73693;SDS011;61997;53.974;11.670;2024-01-10T07:03:38;5.68;;;3.83;;
73693;SDS011;61997;53.974;11.670;2024-01-10T07:06:04;8.38;;;3.78;;
73693;SDS011;61997;53.974;11.670;2024-01-10T07:08:30;6.97;;;4.55;;
73693;SDS011;61997;53.974;11.670;2024-01-10T07:10:55;9.50;;;3.60;;
73693;SDS011;61997;53.974;11.670;2024-01-10T07:13:21;7.22;;;4.15;;
73693;SDS011;61997;53.974;11.670;2024-01-10T07:15:47;6.63;;;3.40;;
73693;SDS011;61997;53.974;11.670;2024-01-10T07:18:12;7.15;;;3.95;;
73693;SDS011;61997;53.974;11.670;2024-01-10T07:20:38;6.43;;;3.88;;
73693;SDS011;61997;53.974;11.670;2024-01-10T07:51:13;7.93;;;3.92;;
73693;SDS011;61997;53.974;11.670;2024-01-10T07:53:39;9.77;;;4.25;;
73693;SDS011;61997;53.974;11.670;2024-01-10T07:56:04;8.55;;;3.35;;
73693;SDS011;61997;53.974;11.670;2024-01-10T07:58:29;8.25;;;4.13;;
73693;SDS011;61997;53.974;11.670;2024-01-10T08:00:55;7.40;;;3.95;;
73693;SDS011;61997;53.974;11.670;2024-01-10T08:03:20;7.50;;;4.05;;
73693;SDS011;61997;53.974;11.670;2024-01-10T08:05:46;9.85;;;4.40;;
73693;SDS011;61997;53.974;11.670;2024-01-10T08:08:11;6.28;;;3.70;;
73693;SDS011;61997;53.974;11.670;2024-01-10T08:10:38;8.60;;;4.30;;
73693;SDS011;61997;53.974;11.670;2024-01-10T08:13:05;8.73;;;4.20;;
73693;SDS011;61997;53.974;11.670;2024-01-10T08:15:30;8.85;;;4.57;;
73693;SDS011;61997;53.974;11.670;2024-01-10T08:17:56;8.07;;;3.85;;
73693;SDS011;61997;53.974;11.670;2024-01-10T08:20:22;8.73;;;4.10;;
73693;SDS011;61997;53.974;11.670;2024-01-10T08:22:47;9.60;;;3.72;;
73693;SDS011;61997;53.974;11.670;2024-01-10T08:25:13;8.60;;;4.28;;
73693;SDS011;61997;53.974;11.670;2024-01-10T08:27:40;7.13;;;4.25;;
73693;SDS011;61997;53.974;11.670;2024-01-10T08:30:06;8.32;;;3.92;;
73693;SDS011;61997;53.974;11.670;2024-01-10T08:32:34;7.78;;;4.20;;
73693;SDS011;61997;53.974;11.670;2024-01-10T08:35:00;8.70;;;4.57;;
73693;SDS011;61997;53.974;11.670;2024-01-10T08:37:25;10.35;;;4.15;;
73693;SDS011;61997;53.974;11.670;2024-01-10T08:39:51;9.60;;;3.75;;
73693;SDS011;61997;53.974;11.670;2024-01-10T08:42:16;9.02;;;4.32;;
73693;SDS011;61997;53.974;11.670;2024-01-10T08:44:41;11.02;;;4.43;;
73693;SDS011;61997;53.974;11.670;2024-01-10T08:47:07;10.85;;;4.30;;
73693;SDS011;61997;53.974;11.670;2024-01-10T08:49:33;12.25;;;5.07;;
73693;SDS011;61997;53.974;11.670;2024-01-10T08:51:58;7.07;;;3.65;;
73693;SDS011;61997;53.974;11.670;2024-01-10T08:54:23;12.05;;;4.07;;
73693;SDS011;61997;53.974;11.670;2024-01-10T08:56:50;7.85;;;3.40;;
73693;SDS011;61997;53.974;11.670;2024-01-10T08:59:15;8.75;;;4.43;;
73693;SDS011;61997;53.974;11.670;2024-01-10T09:01:40;7.03;;;3.85;;
73693;SDS011;61997;53.974;11.670;2024-01-10T09:04:07;11.55;;;4.18;;
73693;SDS011;61997;53.974;11.670;2024-01-10T09:06:32;10.82;;;4.13;;
73693;SDS011;61997;53.974;11.670;2024-01-10T09:08:58;8.40;;;4.30;;
73693;SDS011;61997;53.974;11.670;2024-01-10T09:11:24;9.20;;;3.80;;
73693;SDS011;61997;53.974;11.670;2024-01-10T09:13:50;9.13;;;3.72;;
73693;SDS011;61997;53.974;11.670;2024-01-10T09:16:16;10.07;;;4.15;;
73693;SDS011;61997;53.974;11.670;2024-01-10T09:18:43;8.25;;;3.58;;
73693;SDS011;61997;53.974;11.670;2024-01-10T09:21:09;5.22;;;3.58;;
73693;SDS011;61997;53.974;11.670;2024-01-10T09:23:34;10.38;;;4.00;;
73693;SDS011;61997;53.974;11.670;2024-01-10T09:26:00;10.70;;;4.57;;
73693;SDS011;61997;53.974;11.670;2024-01-10T09:28:25;7.63;;;3.72;;
73693;SDS011;61997;53.974;11.670;2024-01-10T09:30:51;8.52;;;3.97;;
73693;SDS011;61997;53.974;11.670;2024-01-10T09:33:16;8.55;;;3.88;;
73693;SDS011;61997;53.974;11.670;2024-01-10T09:35:42;7.10;;;3.78;;
73693;SDS011;61997;53.974;11.670;2024-01-10T09:38:07;9.10;;;4.45;;
73693;SDS011;61997;53.974;11.670;2024-01-10T09:40:33;9.10;;;4.30;;
73693;SDS011;61997;53.974;11.670;2024-01-10T09:42:58;9.25;;;4.10;;
73693;SDS011;61997;53.974;11.670;2024-01-10T09:45:24;8.13;;;4.20;;
73693;SDS011;61997;53.974;11.670;2024-01-10T09:47:55;7.82;;;4.13;;
73693;SDS011;61997;53.974;11.670;2024-01-10T09:50:21;8.55;;;3.47;;
73693;SDS011;61997;53.974;11.670;2024-01-10T09:52:51;9.65;;;4.25;;
73693;SDS011;61997;53.974;11.670;2024-01-10T09:55:21;7.03;;;3.80;;
73693;SDS011;61997;53.974;11.670;2024-01-10T09:57:48;8.25;;;3.97;;
73693;SDS011;61997;53.974;11.670;2024-01-10T10:00:14;8.07;;;3.85;;
73693;SDS011;61997;53.974;11.670;2024-01-10T10:02:41;5.72;;;3.17;;
73693;SDS011;61997;53.974;11.670;2024-01-10T10:05:13;7.28;;;3.50;;
73693;SDS011;61997;53.974;11.670;2024-01-10T10:07:51;10.40;;;3.90;;
73693;SDS011;61997;53.974;11.670;2024-01-10T10:10:19;7.15;;;3.60;;
73693;SDS011;61997;53.974;11.670;2024-01-10T10:12:46;8.00;;;3.83;;
73693;SDS011;61997;53.974;11.670;2024-01-10T10:15:12;9.73;;;3.92;;
73693;SDS011;61997;53.974;11.670;2024-01-10T10:17:39;6.82;;;3.42;;
73693;SDS011;61997;53.974;11.670;2024-01-10T10:20:11;8.65;;;3.80;;
73693;SDS011;61997;53.974;11.670;2024-01-10T10:22:38;6.95;;;3.35;;
73693;SDS011;61997;53.974;11.670;2024-01-10T10:25:04;8.98;;;4.22;;
73693;SDS011;61997;53.974;11.670;2024-01-10T10:27:30;10.52;;;3.83;;
73693;SDS011;61997;53.974;11.670;2024-01-10T10:29:55;9.40;;;4.05;;
73693;SDS011;61997;53.974;11.670;2024-01-10T10:32:21;11.25;;;3.40;;
73693;SDS011;61997;53.974;11.670;2024-01-10T10:34:46;8.55;;;3.53;;
73693;SDS011;61997;53.974;11.670;2024-01-10T10:37:12;8.60;;;4.20;;
73693;SDS011;61997;53.974;11.670;2024-01-10T10:39:37;7.50;;;4.38;;
73693;SDS011;61997;53.974;11.670;2024-01-10T10:42:03;8.25;;;3.65;;
73693;SDS011;61997;53.974;11.670;2024-01-10T10:44:29;5.88;;;3.45;;
73693;SDS011;61997;53.974;11.670;2024-01-10T10:46:57;6.65;;;3.25;;
73693;SDS011;61997;53.974;11.670;2024-01-10T10:49:31;10.27;;;3.90;;
73693;SDS011;61997;53.974;11.670;2024-01-10T10:51:57;8.50;;;4.03;;
73693;SDS011;61997;53.974;11.670;2024-01-10T10:54:25;11.25;;;4.22;;
73693;SDS011;61997;53.974;11.670;2024-01-10T10:56:54;7.90;;;3.40;;
73693;SDS011;61997;53.974;11.670;2024-01-10T10:59:20;7.40;;;3.55;;
73693;SDS011;61997;53.974;11.670;2024-01-10T11:01:47;8.40;;;3.33;;
73693;SDS011;61997;53.974;11.670;2024-01-10T11:04:12;6.10;;;3.38;;
73693;SDS011;61997;53.974;11.670;2024-01-10T11:06:41;7.55;;;3.40;;
73693;SDS011;61997;53.974;11.670;2024-01-10T11:09:07;9.60;;;3.95;;
73693;SDS011;61997;53.974;11.670;2024-01-10T11:23:35;10.35;;;3.20;;
73693;SDS011;61997;53.974;11.670;2024-01-10T11:26:15;7.93;;;3.83;;
73693;SDS011;61997;53.974;11.670;2024-01-10T11:28:40;7.63;;;3.83;;
73693;SDS011;61997;53.974;11.670;2024-01-10T11:31:07;7.80;;;3.63;;
73693;SDS011;61997;53.974;11.670;2024-01-10T11:33:34;7.05;;;3.70;;
73693;SDS011;61997;53.974;11.670;2024-01-10T11:36:12;7.15;;;3.72;;
73693;SDS011;61997;53.974;11.670;2024-01-10T11:39:20;6.82;;;4.05;;
73693;SDS011;61997;53.974;11.670;2024-01-10T11:46:38;9.30;;;4.20;;
73693;SDS011;61997;53.974;11.670;2024-01-10T11:49:10;8.95;;;4.60;;
73693;SDS011;61997;53.974;11.670;2024-01-10T11:51:38;8.43;;;4.47;;
73693;SDS011;61997;53.974;11.670;2024-01-10T11:54:04;7.00;;;3.70;;
73693;SDS011;61997;53.974;11.670;2024-01-10T11:56:40;7.47;;;5.03;;
73693;SDS011;61997;53.974;11.670;2024-01-10T11:59:07;6.60;;;5.00;;
73693;SDS011;61997;53.974;11.670;2024-01-10T12:01:39;6.93;;;4.25;;
73693;SDS011;61997;53.974;11.670;2024-01-10T12:04:05;6.93;;;4.55;;
73693;SDS011;61997;53.974;11.670;2024-01-10T12:06:34;9.98;;;4.30;;
73693;SDS011;61997;53.974;11.670;2024-01-10T12:09:00;7.43;;;3.75;;
73693;SDS011;61997;53.974;11.670;2024-01-10T12:11:37;8.30;;;4.63;;
73693;SDS011;61997;53.974;11.670;2024-01-10T12:14:04;8.88;;;4.78;;
73693;SDS011;61997;53.974;11.670;2024-01-10T12:16:29;8.27;;;4.30;;
73693;SDS011;61997;53.974;11.670;2024-01-10T12:18:55;9.15;;;4.53;;
73693;SDS011;61997;53.974;11.670;2024-01-10T12:21:20;8.18;;;4.22;;
73693;SDS011;61997;53.974;11.670;2024-01-10T12:23:46;7.75;;;3.90;;
73693;SDS011;61997;53.974;11.670;2024-01-10T12:26:12;8.98;;;3.65;;
73693;SDS011;61997;53.974;11.670;2024-01-10T12:28:38;8.18;;;4.45;;
73693;SDS011;61997;53.974;11.670;2024-01-10T12:31:04;7.82;;;4.38;;
73693;SDS011;61997;53.974;11.670;2024-01-10T12:33:33;9.30;;;4.85;;
73693;SDS011;61997;53.974;11.670;2024-01-10T12:36:06;8.38;;;3.95;;
73693;SDS011;61997;53.974;11.670;2024-01-10T12:38:38;6.47;;;4.35;;
73693;SDS011;61997;53.974;11.670;2024-01-10T12:41:03;6.90;;;4.03;;
73693;SDS011;61997;53.974;11.670;2024-01-10T12:43:30;8.30;;;4.93;;
73693;SDS011;61997;53.974;11.670;2024-01-10T12:46:08;8.32;;;4.40;;
73693;SDS011;61997;53.974;11.670;2024-01-10T12:48:42;9.13;;;4.20;;
73693;SDS011;61997;53.974;11.670;2024-01-10T12:51:08;7.57;;;4.15;;
73693;SDS011;61997;53.974;11.670;2024-01-10T12:53:41;7.65;;;4.20;;
73693;SDS011;61997;53.974;11.670;2024-01-10T12:56:08;9.63;;;3.80;;
73693;SDS011;61997;53.974;11.670;2024-01-10T12:58:39;6.88;;;4.18;;
73693;SDS011;61997;53.974;11.670;2024-01-10T13:01:10;7.80;;;4.03;;
73693;SDS011;61997;53.974;11.670;2024-01-10T13:03:37;8.13;;;3.80;;
73693;SDS011;61997;53.974;11.670;2024-01-10T13:06:03;6.88;;;4.15;;
73693;SDS011;61997;53.974;11.670;2024-01-10T13:08:30;6.70;;;3.90;;
73693;SDS011;61997;53.974;11.670;2024-01-10T13:10:57;7.97;;;3.65;;
73693;SDS011;61997;53.974;11.670;2024-01-10T13:13:22;9.02;;;4.00;;
73693;SDS011;61997;53.974;11.670;2024-01-10T13:15:48;8.15;;;4.07;;
73693;SDS011;61997;53.974;11.670;2024-01-10T13:18:14;7.55;;;4.25;;
73693;SDS011;61997;53.974;11.670;2024-01-10T13:20:40;8.20;;;4.47;;
73693;SDS011;61997;53.974;11.670;2024-01-10T13:23:06;6.97;;;3.92;;
73693;SDS011;61997;53.974;11.670;2024-01-10T13:25:36;8.15;;;4.13;;
73693;SDS011;61997;53.974;11.670;2024-01-10T13:28:05;6.50;;;4.35;;
73693;SDS011;61997;53.974;11.670;2024-01-10T13:30:31;7.72;;;4.30;;
73693;SDS011;61997;53.974;11.670;2024-01-10T13:32:58;7.72;;;4.30;;
73693;SDS011;61997;53.974;11.670;2024-01-10T13:35:33;8.93;;;4.38;;
73693;SDS011;61997;53.974;11.670;2024-01-10T13:38:00;6.78;;;4.03;;
73693;SDS011;61997;53.974;11.670;2024-01-10T13:40:29;8.25;;;4.53;;
73693;SDS011;61997;53.974;11.670;2024-01-10T13:42:57;9.93;;;4.93;;
73693;SDS011;61997;53.974;11.670;2024-01-10T13:45:22;8.25;;;3.92;;
73693;SDS011;61997;53.974;11.670;2024-01-10T13:47:48;7.20;;;4.45;;
73693;SDS011;61997;53.974;11.670;2024-01-10T13:50:16;6.85;;;3.80;;
73693;SDS011;61997;53.974;11.670;2024-01-10T13:52:41;7.35;;;3.83;;
73693;SDS011;61997;53.974;11.670;2024-01-10T13:55:08;6.82;;;4.38;;
73693;SDS011;61997;53.974;11.670;2024-01-10T13:57:34;7.47;;;4.15;;
73693;SDS011;61997;53.974;11.670;2024-01-10T14:00:00;7.85;;;4.43;;
73693;SDS011;61997;53.974;11.670;2024-01-10T14:02:26;8.27;;;3.92;;
73693;SDS011;61997;53.974;11.670;2024-01-10T14:04:52;8.32;;;4.38;;
73693;SDS011;61997;53.974;11.670;2024-01-10T14:07:19;6.68;;;4.47;;
73693;SDS011;61997;53.974;11.670;2024-01-10T14:09:45;8.65;;;4.53;;
73693;SDS011;61997;53.974;11.670;2024-01-10T14:12:11;6.35;;;3.92;;
73693;SDS011;61997;53.974;11.670;2024-01-10T14:14:38;7.70;;;4.35;;
73693;SDS011;61997;53.974;11.670;2024-01-10T14:17:07;6.78;;;4.20;;
73693;SDS011;61997;53.974;11.670;2024-01-10T14:19:39;8.27;;;4.28;;
73693;SDS011;61997;53.974;11.670;2024-01-10T14:22:05;7.20;;;4.15;;
73693;SDS011;61997;53.974;11.670;2024-01-10T14:24:32;10.48;;;4.25;;
73693;SDS011;61997;53.974;11.670;2024-01-10T14:26:59;8.45;;;4.20;;
73693;SDS011;61997;53.974;11.670;2024-01-10T14:29:24;8.85;;;4.53;;
73693;SDS011;61997;53.974;11.670;2024-01-10T14:31:50;8.10;;;4.43;;
73693;SDS011;61997;53.974;11.670;2024-01-10T14:34:16;8.80;;;5.07;;
73693;SDS011;61997;53.974;11.670;2024-01-10T14:36:42;7.53;;;4.68;;
73693;SDS011;61997;53.974;11.670;2024-01-10T14:39:07;8.63;;;4.95;;
73693;SDS011;61997;53.974;11.670;2024-01-10T14:41:33;7.30;;;4.43;;
73693;SDS011;61997;53.974;11.670;2024-01-10T14:44:03;7.65;;;3.88;;
73693;SDS011;61997;53.974;11.670;2024-01-10T14:46:28;7.45;;;4.88;;
73693;SDS011;61997;53.974;11.670;2024-01-10T14:48:54;6.80;;;4.93;;
73693;SDS011;61997;53.974;11.670;2024-01-10T14:51:19;9.57;;;4.32;;
73693;SDS011;61997;53.974;11.670;2024-01-10T14:53:45;8.15;;;4.50;;
73693;SDS011;61997;53.974;11.670;2024-01-10T14:56:10;8.38;;;3.95;;
73693;SDS011;61997;53.974;11.670;2024-01-10T14:58:36;6.00;;;4.07;;
73693;SDS011;61997;53.974;11.670;2024-01-10T15:01:01;8.10;;;4.15;;
73693;SDS011;61997;53.974;11.670;2024-01-10T15:03:27;6.70;;;3.75;;
73693;SDS011;61997;53.974;11.670;2024-01-10T15:05:52;8.55;;;4.32;;
73693;SDS011;61997;53.974;11.670;2024-01-10T15:08:18;6.47;;;4.22;;
73693;SDS011;61997;53.974;11.670;2024-01-10T15:10:44;7.68;;;5.38;;